Main page
METAR-TAF:

METAR-TAF

Airports :

Ashgabat, Turkmenistan

Ashgabat International Airport

latitude: 37-59N, longitude: 058-22E, elevation: m

Current weather observation

The report was made 23 minutes ago, at 07:00 UTC
Wind 6 kt from the West/Northwest, varying between West and North/Northwest
Temperature 33°C
Humidity 13%
Pressure 1013 hPa
Visibility 10 km or more

METAR: UTAA 190700Z 30006KT 260V340 9999 NSC 33/01 Q1013 NOSIG

Time: 12:23 (07:23 UTC)

Forecast

The report was made 2 hours and 53 minutes ago, at 04:30 UTC
Forecast valid from 19 at 06 UTC to 20 at 06 UTC
Wind 14 kt from the North/Northeast
Visibility: 5000 m
Scattered clouds at a height of 10000 ft
Temporary
from 19 at 06 UTC to 19 at 09 UTC
Wind 14 kt from the North/Northwest
Temporary
from 19 at 16 UTC to 19 at 24 UTC
Wind 10 kt from the South/Southwest
Visibility: 2000 m
haze

TAF: UTAA 190430Z 1906/2006 03014KT 5000 SCT100 530009 TEMPO 1906/1909 33014KT TEMPO 1916/1924 20010KT 2000 HZ

Weather observations and forecasts of more than 4000 airports (METAR and TAF reports).

The available stations are represented by yellow and red dots on the map.

Hover mouse over dot to see the name of the station.

Then click to see weather observations and forecasts.

To change the map : click on the green buttons with a black cross to zoom in, on the green button with a dash to zoom out, or on the green arrows for adjacent maps.


METAR-TAF: